Date,TemperatureHighF,TemperatureAvgF,TemperatureLowF,DewpointHighF,DewpointAvgF,DewpointLowF,HumidityHigh,HumidityAvg,HumidityLow,PressureMaxIn,PressureMinIn,WindSpeedMaxMPH,WindSpeedAvgMPH,GustSpeedMaxMPH,PrecipitationSumIn
2013-8-7,72.2,71.3,69.5,72.2,71.3,69.5,100,100,100,28.86,28.81,2,0,5,0.19
2013-8-8,87.6,75.4,67.7,87.6,75.4,67.7,100,100,100,28.89,28.81,6,0,10,0.00
2013-8-9,87.6,78.0,70.6,87.6,78.0,70.6,100,100,100,28.94,28.84,6,1,13,0.00
2013-8-10,83.6,74.2,69.9,83.6,74.2,69.9,100,100,100,29.00,28.91,20,1,20,1.27
2013-8-11,86.7,77.2,69.5,86.7,77.2,69.5,100,100,100,29.00,28.90,7,1,7,0.00
2013-8-12,86.7,77.8,63.7,86.7,77.8,63.7,100,100,100,28.96,28.83,10,3,10,0.00
2013-8-13,84.1,76.9,71.3,84.1,76.9,71.3,100,100,100,28.85,28.76,13,4,13,0.00
2013-8-14,79.9,72.6,64.6,79.9,72.6,64.6,100,100,99,28.86,28.78,137,2,137,0.00
2013-8-15,75.2,69.4,62.7,75.2,69.4,62.7,100,100,100,28.89,28.82,137,27,137,0.00
2013-8-16,70.8,66.3,63.0,70.8,66.3,63.0,100,100,100,28.93,28.85,1,0,0,0.00
2013-8-17,68.8,65.8,62.9,68.8,65.8,62.9,100,100,100,28.96,28.87,9,0,9,0.00
2013-8-18,74.9,69.4,64.1,74.9,69.4,64.0,100,100,100,29.00,28.91,137,20,137,0.12
2013-8-19,83.9,73.7,66.2,83.9,73.7,66.2,100,100,100,28.96,28.87,137,77,137,0.05
2013-8-20,81.8,75.1,68.7,81.6,75.1,68.2,100,100,100,29.02,28.91,137,81,137,0.00
2013-8-21,86.8,74.5,68.0,86.8,74.5,67.8,100,100,100,29.07,28.99,137,88,137,2.10
2013-8-22,84.3,75.2,67.5,84.3,75.2,67.5,100,100,100,29.05,28.93,137,79,137,0.02
2013-8-23,86.3,76.0,67.5,86.1,76.0,67.0,100,100,98,28.99,28.89,137,85,137,0.00
2013-8-24,86.3,76.2,67.0,85.9,76.2,66.7,100,100,100,29.10,28.95,137,85,137,0.00
2013-8-25,83.1,73.3,64.1,82.9,73.2,63.4,100,99,93,29.21,29.10,137,82,137,0.00
2013-8-26,82.5,70.6,59.2,80.7,70.1,58.8,100,99,89,29.18,29.05,137,84,137,0.00
2013-8-27,83.7,71.9,61.2,83.2,71.9,60.3,100,100,96,29.06,28.93,137,89,137,0.00
2013-8-28,86.7,75.1,64.0,86.3,75.0,63.4,100,100,91,28.98,28.89,138,88,138,0.01
2013-8-29,88.1,77.2,66.4,88.1,77.2,66.4,100,100,99,28.97,28.85,137,87,137,0.00
2013-8-30,89.3,77.6,68.7,89.3,77.6,68.7,100,100,100,28.91,28.82,137,86,137,0.00
2013-8-31,90.0,77.4,69.1,89.4,77.3,68.6,100,100,91,28.86,28.75,137,92,137,0.00
2013-9-1,87.8,77.7,70.1,87.8,77.7,70.1,100,100,97,28.84,28.74,138,72,138,0.00
2013-9-2,76.9,73.2,67.3,76.8,73.2,66.5,100,100,100,28.85,28.75,138,18,138,2.16
2013-9-21,70.5,65.7,60.1,70.3,65.7,59.3,100,100,100,28.71,28.63,137,97,137,3.65
2013-9-22,61.2,54.5,52.4,60.4,54.5,51.5,100,100,100,28.73,28.69,137,137,137,0.00
2013-9-23,52.8,52.8,52.8,52.8,52.8,52.8,100,100,100,28.73,28.73,137,137,137,0.00
2013-9-24,52.8,52.8,52.8,52.8,52.8,52.8,100,100,100,28.73,28.73,137,137,137,0.00
2013-9-25,52.8,52.8,52.8,52.8,52.8,52.8,100,100,100,28.73,28.73,137,137,137,0.00
2013-9-26,52.8,52.8,52.8,52.8,52.8,52.8,100,100,100,28.73,28.73,137,137,137,0.00
2013-9-27,52.8,52.8,52.8,52.8,52.8,52.8,100,100,100,28.73,28.73,137,137,137,0.00
2013-9-28,52.8,52.8,52.8,52.8,52.8,52.8,100,100,100,28.73,28.73,137,137,137,0.00
2013-9-29,52.8,52.8,52.8,52.8,52.8,52.8,100,100,100,28.73,28.73,137,137,137,0.00
2013-9-30,52.8,52.8,52.8,52.8,52.8,52.8,100,100,100,28.73,28.73,137,137,137,0.00
2013-10-1,52.8,52.8,52.8,52.8,52.8,52.8,100,100,100,28.73,28.73,137,137,137,0.00
2013-12-6,40.8,37.4,35.6,40.4,37.4,35.6,100,100,100,29.16,28.96,137,8,137,0.51
2013-12-7,37.6,35.3,33.2,37.6,35.3,33.2,100,100,100,29.31,29.15,18,9,18,0.00
2013-12-8,49.9,45.9,37.5,49.8,45.9,37.4,100,100,100,29.16,28.92,12,1,12,0.87
2013-12-9,49.7,44.7,38.7,49.7,44.7,38.7,100,100,100,29.09,28.93,16,3,16,0.68
2013-12-10,39.4,34.0,27.2,39.4,34.0,27.2,100,100,100,29.30,28.92,20,6,20,0.73
2013-12-11,52.3,36.2,25.4,47.5,33.8,25.3,100,92,65,29.36,29.25,6,0,6,0.03
2013-12-12,34.5,32.4,29.8,34.5,32.4,29.8,100,100,100,29.38,29.35,0,0,0,0.00
2013-12-15,34.9,32.9,30.1,34.9,32.9,30.1,100,100,100,29.18,29.08,12,4,12,0.00
2013-12-16,52.8,38.7,26.8,46.0,37.2,26.8,100,95,68,29.19,29.06,15,4,15,0.00
2013-12-17,59.7,46.8,34.0,50.8,43.9,34.0,100,90,70,29.17,28.99,20,7,20,0.00
2013-12-18,54.0,40.9,29.5,39.5,34.0,29.5,100,79,45,29.26,29.15,7,0,7,0.00
2013-12-19,60.5,45.6,29.9,44.8,39.0,29.9,100,80,48,29.19,29.04,14,2,14,0.00
2013-12-20,64.5,57.4,48.8,64.5,55.7,42.3,100,94,77,29.05,28.91,15,4,15,0.00
2013-12-21,71.5,65.7,59.4,71.5,65.7,59.4,100,100,100,28.92,28.67,22,10,22,0.08
2013-12-22,70.6,56.2,52.9,70.6,56.2,52.8,100,100,100,28.99,28.66,23,4,23,0.97
2013-12-23,53.2,39.7,30.9,53.2,39.7,30.8,100,100,100,29.32,28.96,20,9,20,0.01
2013-12-24,34.7,29.0,26.0,32.7,28.6,25.9,100,98,82,29.47,29.32,20,7,20,0.19